createdAt,value
2018-12-19T00:00:33.620Z,23.28
2018-12-19T00:01:33.642Z,23.16
2018-12-19T00:03:26.594Z,23.16
2018-12-19T00:04:26.620Z,23.18
2018-12-19T00:06:19.560Z,23.20
2018-12-19T00:07:19.589Z,23.20
2018-12-19T00:09:12.541Z,23.17
2018-12-19T00:10:12.563Z,23.20
2018-12-19T00:12:05.505Z,23.17
2018-12-19T00:13:05.534Z,23.14
2018-12-19T00:14:58.487Z,23.11
2018-12-19T00:15:58.513Z,23.14
2018-12-19T00:17:51.460Z,23.17
2018-12-19T00:18:51.480Z,23.18
2018-12-19T00:20:44.440Z,23.20
2018-12-19T00:21:44.460Z,23.18
2018-12-19T00:23:37.405Z,23.18
2018-12-19T00:24:37.433Z,23.17
2018-12-19T00:26:30.887Z,23.14
2018-12-19T00:27:30.908Z,23.13
2018-12-19T00:29:23.867Z,23.16
2018-12-19T00:30:23.883Z,23.11
2018-12-19T00:32:17.328Z,23.18
2018-12-19T00:33:17.360Z,23.17
2018-12-19T00:35:10.314Z,23.17
2018-12-19T00:36:10.337Z,23.11
2018-12-19T00:38:03.277Z,23.17
2018-12-19T00:39:09.390Z,23.10
2018-12-19T00:40:56.257Z,23.11
2018-12-19T00:41:56.278Z,23.07
2018-12-19T00:43:49.225Z,23.07
2018-12-19T00:44:49.253Z,23.07
2018-12-19T00:46:42.204Z,23.07
2018-12-19T00:47:42.228Z,22.99
2018-12-19T00:49:35.182Z,23.04
2018-12-19T00:50:35.201Z,23.07
2018-12-19T00:52:28.155Z,23.04
2018-12-19T00:53:28.177Z,23.04
2018-12-19T00:55:21.139Z,23.06
2018-12-19T00:56:21.161Z,23.10
2018-12-19T00:58:14.100Z,23.02
2018-12-19T00:59:14.130Z,22.98
2018-12-19T01:01:07.084Z,23.04
2018-12-19T01:02:07.103Z,23.01
2018-12-19T01:04:00.049Z,23.01
2018-12-19T01:05:00.083Z,23.06
2018-12-19T01:06:53.030Z,23.01
2018-12-19T01:07:53.052Z,23.02
2018-12-19T01:09:46.006Z,23.04
2018-12-19T01:10:46.029Z,23.01
2018-12-19T01:12:38.979Z,22.96
2018-12-19T01:13:39.005Z,23.02
2018-12-19T01:15:31.963Z,23.01
2018-12-19T01:16:31.980Z,23.04
2018-12-19T01:18:24.922Z,22.91
2018-12-19T01:19:24.952Z,22.95
2018-12-19T01:21:17.906Z,22.98
2018-12-19T01:22:17.926Z,23.02
2018-12-19T01:24:10.873Z,22.91
2018-12-19T01:25:10.897Z,22.98
2018-12-19T01:27:03.851Z,23.01
2018-12-19T01:28:03.872Z,22.98
2018-12-19T01:29:57.313Z,23.01
2018-12-19T01:30:57.335Z,22.84
2018-12-19T01:32:50.281Z,22.98
2018-12-19T01:33:50.311Z,22.95
2018-12-19T01:35:43.267Z,22.95
2018-12-19T01:36:43.286Z,22.92
2018-12-19T01:38:36.232Z,22.99
2018-12-19T01:39:36.262Z,22.84
2018-12-19T01:41:29.213Z,22.83
2018-12-19T01:42:29.236Z,22.84
2018-12-19T01:44:22.181Z,22.84
2018-12-19T01:45:22.209Z,22.89
2018-12-19T01:47:15.163Z,22.84
2018-12-19T01:48:15.181Z,22.83
2018-12-19T01:50:08.627Z,22.80
2018-12-19T01:51:08.644Z,22.84
2018-12-19T01:53:01.592Z,22.77
2018-12-19T01:54:01.619Z,22.83
2018-12-19T01:55:54.575Z,22.78
2018-12-19T01:56:54.593Z,22.80
2018-12-19T01:58:47.535Z,22.78
2018-12-19T01:59:47.563Z,22.89
2018-12-19T02:01:40.515Z,22.77
2018-12-19T02:02:40.539Z,22.80
2018-12-19T02:04:33.485Z,22.77
2018-12-19T02:05:33.511Z,22.86
2018-12-19T02:07:26.464Z,22.83
2018-12-19T02:08:26.480Z,22.71
2018-12-19T02:10:19.430Z,22.86
2018-12-19T02:11:19.454Z,22.74
2018-12-19T02:13:12.404Z,22.88
2018-12-19T02:14:12.426Z,22.80
2018-12-19T02:16:05.379Z,22.74
2018-12-19T02:17:05.402Z,22.84
2018-12-19T02:18:58.836Z,22.76
2018-12-19T02:19:58.864Z,22.74
2018-12-19T02:21:51.820Z,22.71
2018-12-19T02:22:51.843Z,22.80
2018-12-19T02:24:44.785Z,22.76
2018-12-19T02:25:44.813Z,22.73
2018-12-19T02:27:37.763Z,22.70
2018-12-19T02:28:37.785Z,22.73
2018-12-19T02:30:30.736Z,22.74
2018-12-19T02:31:30.764Z,22.70
2018-12-19T02:33:23.720Z,22.74
2018-12-19T02:34:23.738Z,22.70
2018-12-19T02:36:16.691Z,22.81
2018-12-19T02:37:16.723Z,22.67
2018-12-19T02:39:09.660Z,22.81
2018-12-19T02:40:09.692Z,22.76
2018-12-19T02:42:02.646Z,22.80
2018-12-19T02:43:02.666Z,22.76
2018-12-19T02:44:55.610Z,22.67
2018-12-19T02:45:55.639Z,22.70
2018-12-19T02:47:48.600Z,22.73
2018-12-19T02:48:48.618Z,22.65
2018-12-19T02:50:41.565Z,22.74
2018-12-19T02:51:41.591Z,22.73
2018-12-19T02:53:34.550Z,22.65
2018-12-19T02:54:34.562Z,22.68
2018-12-19T02:56:27.516Z,22.65
2018-12-19T02:57:27.533Z,22.65
2018-12-19T02:59:20.480Z,22.71
2018-12-19T03:00:20.511Z,22.68
2018-12-19T03:02:13.465Z,22.67
2018-12-19T03:03:13.482Z,22.73
2018-12-19T03:05:06.424Z,22.68
2018-12-19T03:06:06.453Z,22.62
2018-12-19T03:07:59.408Z,22.68
2018-12-19T03:08:59.430Z,22.56
2018-12-19T03:10:52.372Z,22.55
2018-12-19T03:11:52.399Z,22.55
2018-12-19T03:13:45.358Z,22.62
2018-12-19T03:14:45.374Z,22.62
2018-12-19T03:16:38.324Z,22.58
2018-12-19T03:17:38.344Z,22.63
2018-12-19T03:19:31.289Z,22.63
2018-12-19T03:20:31.317Z,22.65
2018-12-19T03:22:24.763Z,22.63
2018-12-19T03:23:24.783Z,22.59
2018-12-19T03:25:17.722Z,22.51
2018-12-19T03:26:17.750Z,22.55
2018-12-19T03:28:10.702Z,22.62
2018-12-19T03:29:10.727Z,22.58
2018-12-19T03:31:03.670Z,22.63
2018-12-19T03:32:03.700Z,22.59
2018-12-19T03:33:56.652Z,22.52
2018-12-19T03:34:56.668Z,22.55
2018-12-19T03:36:49.633Z,22.53
2018-12-19T03:37:49.640Z,22.58
2018-12-19T03:39:42.586Z,22.59
2018-12-19T03:40:42.619Z,22.52
2018-12-19T03:42:35.567Z,22.46
2018-12-19T03:43:35.587Z,22.56
2018-12-19T03:45:28.530Z,22.52
2018-12-19T03:46:28.557Z,22.55
2018-12-19T03:48:21.513Z,22.52
2018-12-19T03:49:21.530Z,22.52
2018-12-19T03:51:14.473Z,22.51
2018-12-19T03:52:14.502Z,22.55
2018-12-19T03:54:07.456Z,22.49
2018-12-19T03:55:07.474Z,22.43
2018-12-19T03:57:00.426Z,22.49
2018-12-19T03:58:00.443Z,22.52
2018-12-19T03:59:53.891Z,22.53
2018-12-19T04:00:53.920Z,22.55
2018-12-19T04:02:46.869Z,22.47
2018-12-19T04:03:46.890Z,22.52
2018-12-19T04:05:39.833Z,22.46
2018-12-19T04:06:39.864Z,22.46
2018-12-19T04:08:32.814Z,22.44
2018-12-19T04:09:32.832Z,22.52
2018-12-19T04:11:25.776Z,22.47
2018-12-19T04:12:25.807Z,22.47
2018-12-19T04:14:18.755Z,22.49
2018-12-19T04:15:18.782Z,22.43
2018-12-19T04:17:11.722Z,22.49
2018-12-19T04:18:11.749Z,22.46
2018-12-19T04:20:04.701Z,22.47
2018-12-19T04:21:04.721Z,22.49
2018-12-19T04:22:57.677Z,22.51
2018-12-19T04:23:57.695Z,22.40
2018-12-19T04:25:50.641Z,22.49
2018-12-19T04:26:50.667Z,22.47
2018-12-19T04:28:43.738Z,22.43
2018-12-19T04:29:43.647Z,22.40
2018-12-19T04:31:36.592Z,22.47
2018-12-19T04:32:36.618Z,22.43
2018-12-19T04:34:30.070Z,22.37
2018-12-19T04:35:30.096Z,22.46
2018-12-19T04:37:23.037Z,22.37
2018-12-19T04:38:23.068Z,22.34
2018-12-19T04:40:16.511Z,22.40
2018-12-19T04:41:16.529Z,22.47
2018-12-19T04:43:09.482Z,22.46
2018-12-19T04:44:09.505Z,22.44
2018-12-19T04:46:02.445Z,22.41
2018-12-19T04:47:02.478Z,22.40
2018-12-19T04:48:55.922Z,22.41
2018-12-19T04:49:55.937Z,22.37
2018-12-19T04:51:48.885Z,22.41
2018-12-19T04:52:48.915Z,22.44
2018-12-19T04:54:41.867Z,22.37
2018-12-19T04:55:41.886Z,22.37
2018-12-19T04:57:34.860Z,22.40
2018-12-19T04:58:34.888Z,22.37
2018-12-19T05:00:27.843Z,22.37
2018-12-19T05:01:27.862Z,22.37
2018-12-19T05:03:20.822Z,22.37
2018-12-19T05:04:20.837Z,22.37
2018-12-19T05:06:13.777Z,22.40
2018-12-19T05:07:13.802Z,22.38
2018-12-19T05:09:06.761Z,22.43
2018-12-19T05:10:12.358Z,22.47
2018-12-19T05:11:59.724Z,22.43
2018-12-19T05:13:01.279Z,22.47
2018-12-19T05:14:52.704Z,22.41
2018-12-19T05:15:52.726Z,22.51
2018-12-19T05:17:45.670Z,22.49
2018-12-19T05:18:45.698Z,22.52
2018-12-19T05:20:38.644Z,22.41
2018-12-19T05:21:38.668Z,22.46
2018-12-19T05:23:31.626Z,22.55
2018-12-19T05:24:31.643Z,22.41
2018-12-19T05:26:24.588Z,22.40
2018-12-19T05:27:24.614Z,22.51
2018-12-19T05:29:17.562Z,22.43
2018-12-19T05:30:17.585Z,22.41
2018-12-19T05:32:10.525Z,22.47
2018-12-19T05:33:10.568Z,22.38
2018-12-19T05:35:03.508Z,22.51
2018-12-19T05:36:03.530Z,22.47
2018-12-19T05:37:56.477Z,22.47
2018-12-19T05:38:56.502Z,22.46
2018-12-19T05:40:49.499Z,22.47
2018-12-19T05:41:49.479Z,22.49
2018-12-19T05:43:42.424Z,22.52
2018-12-19T05:44:42.452Z,22.55
2018-12-19T05:46:35.405Z,22.49
2018-12-19T05:47:35.424Z,22.49
2018-12-19T05:49:28.868Z,22.51
2018-12-19T05:50:28.885Z,22.49
2018-12-19T05:52:23.263Z,22.55
2018-12-19T05:53:21.861Z,22.55
2018-12-19T05:55:14.814Z,22.52
2018-12-19T05:56:14.835Z,22.55
2018-12-19T05:58:07.782Z,22.56
2018-12-19T05:59:07.810Z,22.49
2018-12-19T06:01:01.263Z,22.62
2018-12-19T06:02:01.282Z,22.55
2018-12-19T06:03:54.718Z,22.52
2018-12-19T06:04:54.754Z,22.56
2018-12-19T06:06:48.190Z,22.55
2018-12-19T06:07:48.209Z,22.55
2018-12-19T06:09:41.651Z,22.47
2018-12-19T06:10:41.672Z,22.52
2018-12-19T06:12:35.115Z,22.56
2018-12-19T06:13:35.145Z,22.56
2018-12-19T06:15:28.093Z,22.49
2018-12-19T06:16:28.116Z,22.52
2018-12-19T06:18:21.065Z,22.49
2018-12-19T06:19:21.093Z,22.49
2018-12-19T06:21:14.043Z,22.52
2018-12-19T06:22:14.065Z,22.58
2018-12-19T06:24:07.007Z,22.53
2018-12-19T06:25:07.037Z,22.52
2018-12-19T06:27:00.503Z,22.65
2018-12-19T06:28:00.526Z,22.65
2018-12-19T06:29:53.643Z,22.74
2018-12-19T06:30:53.503Z,22.73
2018-12-19T06:32:46.965Z,22.80
2018-12-19T06:33:46.994Z,22.80
2018-12-19T06:35:39.951Z,22.71
2018-12-19T06:36:39.970Z,22.80
2018-12-19T06:38:33.420Z,22.88
2018-12-19T06:39:33.447Z,22.83
2018-12-19T06:41:26.903Z,22.86
2018-12-19T06:42:26.924Z,22.86
2018-12-19T06:44:19.866Z,22.84
2018-12-19T06:45:19.894Z,22.86
2018-12-19T06:47:14.348Z,22.98
2018-12-19T06:48:14.372Z,22.93
2018-12-19T06:50:07.825Z,22.95
2018-12-19T06:51:07.845Z,22.99
2018-12-19T06:53:00.792Z,23.06
2018-12-19T06:54:00.824Z,23.02
2018-12-19T06:55:54.265Z,23.04
2018-12-19T06:56:54.285Z,22.99
2018-12-19T06:58:47.244Z,23.14
2018-12-19T06:59:47.273Z,23.17
2018-12-19T07:01:40.224Z,23.14
2018-12-19T07:02:40.243Z,22.99
2018-12-19T07:04:33.193Z,22.99
2018-12-19T07:05:33.224Z,23.01
2018-12-19T07:07:26.178Z,23.06
2018-12-19T07:08:26.196Z,23.07
2018-12-19T07:10:19.150Z,23.17
2018-12-19T07:11:19.168Z,23.13
2018-12-19T07:13:12.132Z,23.10
2018-12-19T07:14:12.148Z,23.16
2018-12-19T07:16:05.101Z,23.13
2018-12-19T07:17:05.123Z,23.14
2018-12-19T07:18:58.066Z,23.10
2018-12-19T07:19:58.094Z,23.13
2018-12-19T07:21:51.049Z,23.13
2018-12-19T07:22:51.069Z,23.13
2018-12-19T07:24:44.018Z,23.14
2018-12-19T07:25:44.047Z,23.21
2018-12-19T07:27:37.003Z,23.18
2018-12-19T07:28:37.024Z,23.18
2018-12-19T07:30:29.967Z,23.17
2018-12-19T07:31:29.999Z,23.16
2018-12-19T07:33:22.948Z,23.14
2018-12-19T07:34:22.971Z,23.20
2018-12-19T07:36:15.969Z,23.20
2018-12-19T07:37:15.991Z,23.17
2018-12-19T07:39:08.941Z,23.14
2018-12-19T07:40:08.971Z,23.14
2018-12-19T07:42:01.923Z,23.17
2018-12-19T07:43:01.945Z,23.20
2018-12-19T07:44:54.888Z,23.16
2018-12-19T07:45:54.917Z,23.28
2018-12-19T07:47:47.874Z,23.20
2018-12-19T07:48:47.894Z,23.16
2018-12-19T07:50:41.329Z,23.13
2018-12-19T07:51:41.357Z,23.20
2018-12-19T07:53:34.812Z,23.29
2018-12-19T07:54:34.833Z,23.28
2018-12-19T07:56:27.805Z,23.28
2018-12-19T07:57:27.812Z,23.33
2018-12-19T07:59:21.245Z,23.17
2018-12-19T08:00:27.231Z,23.23
2018-12-19T08:02:14.234Z,23.26
2018-12-19T08:03:14.258Z,23.20
2018-12-19T08:05:07.254Z,23.29
2018-12-19T08:06:07.236Z,23.28
2018-12-19T08:08:00.186Z,23.28
2018-12-19T08:09:00.208Z,23.29
2018-12-19T08:10:53.157Z,23.29
2018-12-19T08:11:53.186Z,23.37
2018-12-19T08:13:46.141Z,23.34
2018-12-19T08:14:46.161Z,23.25
2018-12-19T08:16:39.106Z,23.32
2018-12-19T08:17:39.133Z,23.25
2018-12-19T08:19:32.099Z,23.28
2018-12-19T08:20:32.107Z,23.37
2018-12-19T08:22:25.567Z,23.29
2018-12-19T08:23:25.588Z,23.26
2018-12-19T08:25:19.037Z,23.32
2018-12-19T08:26:19.400Z,23.36
2018-12-19T08:28:12.519Z,23.37
2018-12-19T08:29:12.540Z,23.37
2018-12-19T08:31:05.978Z,23.40
2018-12-19T08:32:06.007Z,23.34
2018-12-19T08:33:59.464Z,23.42
2018-12-19T08:34:59.487Z,23.40
2018-12-19T08:36:52.928Z,23.40
2018-12-19T08:37:52.955Z,23.39
2018-12-19T08:39:46.406Z,23.40
2018-12-19T08:40:46.425Z,23.52
2018-12-19T08:42:39.872Z,23.49
2018-12-19T08:43:39.893Z,23.49
2018-12-19T08:45:33.337Z,23.49
2018-12-19T08:46:33.364Z,23.44
2018-12-19T08:48:26.813Z,23.54
2018-12-19T08:49:26.837Z,23.48
2018-12-19T08:51:20.276Z,23.54
2018-12-19T08:52:20.308Z,23.51
2018-12-19T08:54:13.765Z,23.54
2018-12-19T08:55:13.789Z,23.58
2018-12-19T08:57:07.240Z,23.56
2018-12-19T08:58:07.269Z,23.52
2018-12-19T09:00:00.716Z,23.52
2018-12-19T09:01:00.746Z,23.51
2018-12-19T09:02:54.188Z,23.54
2018-12-19T09:03:54.209Z,23.48
2018-12-19T09:05:47.652Z,23.40
2018-12-19T09:06:47.683Z,23.42
2018-12-19T09:08:41.140Z,23.37
2018-12-19T09:09:41.162Z,23.39
2018-12-19T09:11:34.616Z,23.42
2018-12-19T09:12:34.640Z,23.40
2018-12-19T09:14:28.096Z,23.49
2018-12-19T09:15:28.118Z,23.52
2018-12-19T09:17:21.556Z,23.33
2018-12-19T09:18:21.587Z,23.40
2018-12-19T09:20:15.037Z,23.47
2018-12-19T09:21:15.063Z,23.52
2018-12-19T09:23:08.538Z,23.52
2018-12-19T09:24:08.539Z,23.45
2018-12-19T09:26:01.977Z,23.45
2018-12-19T09:27:02.011Z,23.51
2018-12-19T09:28:55.457Z,23.45
2018-12-19T09:29:55.485Z,23.48
2018-12-19T09:31:48.927Z,23.49
2018-12-19T09:32:48.955Z,23.52
2018-12-19T09:34:42.403Z,23.45
2018-12-19T09:35:42.425Z,23.52
2018-12-19T09:37:35.371Z,23.39
2018-12-19T09:38:35.403Z,23.28
2018-12-19T09:40:28.858Z,23.29
2018-12-19T09:41:28.882Z,23.37
2018-12-19T09:43:22.327Z,23.40
2018-12-19T09:44:22.349Z,23.54
2018-12-19T09:46:15.794Z,23.52
2018-12-19T09:47:15.823Z,23.58
2018-12-19T09:49:12.380Z,23.58
2018-12-19T09:50:08.799Z,23.56
2018-12-19T09:52:02.248Z,23.48
2018-12-19T09:53:02.280Z,23.55
2018-12-19T09:54:55.735Z,23.55
2018-12-19T09:55:55.758Z,23.52
2018-12-19T09:57:49.197Z,23.51
2018-12-19T09:58:49.229Z,23.52
2018-12-19T10:00:42.674Z,23.58
2018-12-19T10:01:42.694Z,23.58
2018-12-19T10:03:36.186Z,23.48
2018-12-19T10:04:36.165Z,23.51
2018-12-19T10:06:29.618Z,23.55
2018-12-19T10:07:29.838Z,23.40
2018-12-19T10:09:23.088Z,23.55
2018-12-19T10:10:23.111Z,23.52
2018-12-19T10:12:16.559Z,23.51
2018-12-19T10:13:16.588Z,23.44
2018-12-19T10:15:10.036Z,23.49
2018-12-19T10:16:10.057Z,23.51
2018-12-19T10:18:03.497Z,23.49
2018-12-19T10:19:03.528Z,23.40
2018-12-19T10:20:56.487Z,23.44
2018-12-19T10:21:56.507Z,23.49
2018-12-19T10:23:49.958Z,23.49
2018-12-19T10:24:49.987Z,23.49
2018-12-19T10:26:42.941Z,23.52
2018-12-19T10:27:42.967Z,23.56
2018-12-19T10:29:36.442Z,23.52
2018-12-19T10:30:36.442Z,23.49
2018-12-19T10:32:29.384Z,23.52
2018-12-19T10:33:29.418Z,23.45
2018-12-19T10:35:22.371Z,23.56
2018-12-19T10:36:22.397Z,23.44
2018-12-19T10:38:15.343Z,23.52
2018-12-19T10:39:15.374Z,23.40
2018-12-19T10:41:08.331Z,23.40
2018-12-19T10:42:08.355Z,23.44
2018-12-19T10:44:01.298Z,23.40
2018-12-19T10:45:01.327Z,23.37
2018-12-19T10:46:54.285Z,23.45
2018-12-19T10:47:54.302Z,23.40
2018-12-19T10:49:47.784Z,23.51
2018-12-19T10:50:47.781Z,23.44
2018-12-19T10:52:41.233Z,23.45
2018-12-19T10:53:41.261Z,23.51
2018-12-19T10:55:34.716Z,23.33
2018-12-19T10:56:34.738Z,23.40
2018-12-19T10:58:27.684Z,23.51
2018-12-19T10:59:27.717Z,23.56
2018-12-19T11:01:20.673Z,23.74
2018-12-19T11:02:20.694Z,23.67
2018-12-19T11:04:13.643Z,23.56
2018-12-19T11:05:13.680Z,23.63
2018-12-19T11:07:07.131Z,23.54
2018-12-19T11:08:07.151Z,23.52
2018-12-19T11:10:00.099Z,23.63
2018-12-19T11:11:00.127Z,23.67
2018-12-19T11:12:53.087Z,23.59
2018-12-19T11:13:53.111Z,23.63
2018-12-19T11:15:46.555Z,23.70
2018-12-19T11:16:46.577Z,23.63
2018-12-19T11:18:39.523Z,23.67
2018-12-19T11:19:39.555Z,23.63
2018-12-19T11:21:33.009Z,23.71
2018-12-19T11:22:33.029Z,23.67
2018-12-19T11:24:25.981Z,23.64
2018-12-19T11:25:26.008Z,23.64
2018-12-19T11:27:18.971Z,23.73
2018-12-19T11:28:18.991Z,23.71
2018-12-19T11:30:11.939Z,23.63
2018-12-19T11:31:11.968Z,23.67
2018-12-19T11:33:04.921Z,23.74
2018-12-19T11:34:04.944Z,23.69
2018-12-19T11:35:57.898Z,23.74
2018-12-19T11:36:57.913Z,23.69
2018-12-19T11:38:50.863Z,23.66
2018-12-19T11:39:50.893Z,23.67
2018-12-19T11:41:43.846Z,23.70
2018-12-19T11:42:43.871Z,23.70
2018-12-19T11:44:36.815Z,23.76
2018-12-19T11:45:36.842Z,23.82
2018-12-19T11:47:29.804Z,23.79
2018-12-19T11:48:29.817Z,23.91
2018-12-19T11:50:22.765Z,23.82
2018-12-19T11:51:22.791Z,23.85
2018-12-19T11:53:15.751Z,23.77
2018-12-19T11:54:15.772Z,23.85
2018-12-19T11:56:08.715Z,23.74
2018-12-19T11:57:08.749Z,23.86
2018-12-19T11:59:01.697Z,23.84
2018-12-19T12:00:01.719Z,23.89
2018-12-19T12:01:54.674Z,23.82
2018-12-19T12:02:54.699Z,23.85
2018-12-19T12:04:47.654Z,23.81
2018-12-19T12:05:47.685Z,23.92
2018-12-19T12:07:40.636Z,23.99
2018-12-19T12:08:40.657Z,23.99
2018-12-19T12:10:33.605Z,23.89
2018-12-19T12:11:33.633Z,23.89
2018-12-19T12:13:26.585Z,24.01
2018-12-19T12:14:26.607Z,23.95
2018-12-19T12:16:19.552Z,23.86
2018-12-19T12:17:19.580Z,23.99
2018-12-19T12:19:13.039Z,23.96
2018-12-19T12:20:13.057Z,23.94
2018-12-19T12:22:06.507Z,23.95
2018-12-19T12:23:06.526Z,23.95
2018-12-19T12:24:59.980Z,24.04
2018-12-19T12:26:00.011Z,24.09
2018-12-19T12:27:53.459Z,24.00
2018-12-19T12:28:53.476Z,24.07
2018-12-19T12:30:46.422Z,23.94
2018-12-19T12:31:46.453Z,24.00
2018-12-19T12:33:39.406Z,23.92
2018-12-19T12:34:39.428Z,23.95
2018-12-19T12:36:32.881Z,23.92
2018-12-19T12:37:32.909Z,24.10
2018-12-19T12:39:25.865Z,24.06
2018-12-19T12:40:25.887Z,23.99
2018-12-19T12:42:18.874Z,24.01
2018-12-19T12:43:18.895Z,24.07
2018-12-19T12:45:11.843Z,24.13
2018-12-19T12:46:11.871Z,24.09
2018-12-19T12:48:05.321Z,24.00
2018-12-19T12:49:05.342Z,24.09
2018-12-19T12:50:58.288Z,24.04
2018-12-19T12:51:58.317Z,24.00
2018-12-19T12:53:51.276Z,24.04
2018-12-19T12:54:51.341Z,24.10
2018-12-19T12:56:44.235Z,24.13
2018-12-19T12:57:44.264Z,24.00
2018-12-19T12:59:37.273Z,24.04
2018-12-19T13:00:38.221Z,23.99
2018-12-19T13:02:30.249Z,23.85
2018-12-19T13:03:30.270Z,23.86
2018-12-19T13:05:23.226Z,23.99
2018-12-19T13:06:23.248Z,24.01
2018-12-19T13:08:16.203Z,23.95
2018-12-19T13:09:16.223Z,23.94
2018-12-19T13:11:09.175Z,23.92
2018-12-19T13:12:09.204Z,24.00
2018-12-19T13:14:02.156Z,23.91
2018-12-19T13:15:02.179Z,23.91
2018-12-19T13:16:55.129Z,23.84
2018-12-19T13:17:55.156Z,23.85
2018-12-19T13:19:48.110Z,23.95
2018-12-19T13:20:48.132Z,23.92
2018-12-19T13:22:41.081Z,23.86
2018-12-19T13:23:41.113Z,23.89
2018-12-19T13:25:34.064Z,23.94
2018-12-19T13:26:34.126Z,23.96
2018-12-19T13:28:27.041Z,23.94
2018-12-19T13:29:27.059Z,23.86
2018-12-19T13:31:20.013Z,23.82
2018-12-19T13:32:20.036Z,23.88
2018-12-19T13:34:12.991Z,23.86
2018-12-19T13:35:13.013Z,23.84
2018-12-19T13:37:05.975Z,23.85
2018-12-19T13:38:05.990Z,23.77
2018-12-19T13:39:58.940Z,23.74
2018-12-19T13:40:58.962Z,23.74
2018-12-19T13:42:51.909Z,23.74
2018-12-19T13:43:51.937Z,23.76
2018-12-19T13:45:44.890Z,23.79
2018-12-19T13:46:44.908Z,23.81
2018-12-19T13:48:37.864Z,23.77
2018-12-19T13:49:37.886Z,23.81
2018-12-19T13:51:30.840Z,23.77
2018-12-19T13:52:30.861Z,23.77
2018-12-19T13:54:23.818Z,23.79
2018-12-19T13:55:23.840Z,23.74
2018-12-19T13:57:16.785Z,23.81
2018-12-19T13:58:16.821Z,23.82
2018-12-19T14:00:09.770Z,23.84
2018-12-19T14:01:09.793Z,23.79
2018-12-19T14:03:02.735Z,23.88
2018-12-19T14:04:02.765Z,23.81
2018-12-19T14:05:55.721Z,23.76
2018-12-19T14:06:55.738Z,23.81
2018-12-19T14:08:48.698Z,23.81
2018-12-19T14:09:48.717Z,23.82
2018-12-19T14:11:41.663Z,23.88
2018-12-19T14:12:41.690Z,23.84
2018-12-19T14:14:34.647Z,23.82
2018-12-19T14:15:34.668Z,23.82
2018-12-19T14:17:27.614Z,23.77
2018-12-19T14:18:27.643Z,23.77
2018-12-19T14:20:20.602Z,23.84
2018-12-19T14:21:20.613Z,23.74
2018-12-19T14:23:13.562Z,23.73
2018-12-19T14:24:13.591Z,23.77
2018-12-19T14:26:06.545Z,23.79
2018-12-19T14:27:06.568Z,23.84
2018-12-19T14:28:59.540Z,23.74
2018-12-19T14:29:59.540Z,23.76
2018-12-19T14:31:52.488Z,23.81
2018-12-19T14:32:52.516Z,23.76
2018-12-19T14:34:45.468Z,23.79
2018-12-19T14:35:45.492Z,23.76
2018-12-19T14:37:38.434Z,23.81
2018-12-19T14:38:38.467Z,23.74
2018-12-19T14:40:31.421Z,23.76
2018-12-19T14:41:31.442Z,23.76
2018-12-19T14:43:24.386Z,23.76
2018-12-19T14:44:24.416Z,23.70
2018-12-19T14:46:17.367Z,23.74
2018-12-19T14:47:17.390Z,23.73
2018-12-19T14:49:13.959Z,23.71
2018-12-19T14:50:10.361Z,23.70
2018-12-19T14:52:03.822Z,23.70
2018-12-19T14:53:03.839Z,23.71
2018-12-19T14:54:56.796Z,23.70
2018-12-19T14:55:56.816Z,23.76
2018-12-19T14:57:49.759Z,23.70
2018-12-19T14:58:49.796Z,23.70
2018-12-19T15:00:42.745Z,23.71
2018-12-19T15:01:42.768Z,23.64
2018-12-19T15:03:35.712Z,23.69
2018-12-19T15:04:35.741Z,23.67
2018-12-19T15:06:28.695Z,23.71
2018-12-19T15:07:28.715Z,23.70
2018-12-19T15:09:21.667Z,23.70
2018-12-19T15:10:21.699Z,23.74
2018-12-19T15:12:15.143Z,23.81
2018-12-19T15:13:15.173Z,23.76
2018-12-19T15:15:08.128Z,23.74
2018-12-19T15:16:08.150Z,23.73
2018-12-19T15:18:01.094Z,23.70
2018-12-19T15:19:01.125Z,23.74
2018-12-19T15:20:54.074Z,23.79
2018-12-19T15:21:54.098Z,23.85
2018-12-19T15:23:47.044Z,23.79
2018-12-19T15:24:47.073Z,23.82
2018-12-19T15:26:40.033Z,23.82
2018-12-19T15:27:40.054Z,23.84
2018-12-19T15:29:32.997Z,23.52
2018-12-19T15:30:33.028Z,23.51
2018-12-19T15:32:25.982Z,23.58
2018-12-19T15:33:26.017Z,23.66
2018-12-19T15:35:18.954Z,23.55
2018-12-19T15:36:18.975Z,23.58
2018-12-19T15:38:11.928Z,23.73
2018-12-19T15:39:11.954Z,23.64
2018-12-19T15:41:04.907Z,23.66
2018-12-19T15:42:04.931Z,23.59
2018-12-19T15:43:57.877Z,23.54
2018-12-19T15:44:57.906Z,23.51
2018-12-19T15:46:50.860Z,23.56
2018-12-19T15:47:50.880Z,23.54
2018-12-19T15:49:43.824Z,23.70
2018-12-19T15:50:43.854Z,23.54
2018-12-19T15:52:36.814Z,23.55
2018-12-19T15:53:36.838Z,23.33
2018-12-19T15:55:29.791Z,23.40
2018-12-19T15:56:29.812Z,23.37
2018-12-19T15:58:22.755Z,23.33
2018-12-19T15:59:22.785Z,23.39
2018-12-19T16:01:15.735Z,23.28
2018-12-19T16:02:15.758Z,23.44
2018-12-19T16:04:08.702Z,23.23
2018-12-19T16:05:08.730Z,23.39
2018-12-19T16:07:01.685Z,23.23
2018-12-19T16:08:01.708Z,23.16
2018-12-19T16:09:54.653Z,23.18
2018-12-19T16:10:54.683Z,23.20
2018-12-19T16:12:47.638Z,23.33
2018-12-19T16:13:47.661Z,23.29
2018-12-19T16:15:40.657Z,23.42
2018-12-19T16:16:40.636Z,23.25
2018-12-19T16:18:33.584Z,23.25
2018-12-19T16:19:33.615Z,23.32
2018-12-19T16:21:26.566Z,23.25
2018-12-19T16:22:26.588Z,23.26
2018-12-19T16:24:20.024Z,23.29
2018-12-19T16:25:20.052Z,23.23
2018-12-19T16:27:13.006Z,23.26
2018-12-19T16:28:13.025Z,23.25
2018-12-19T16:30:05.968Z,23.32
2018-12-19T16:31:05.995Z,23.32
2018-12-19T16:32:58.951Z,23.26
2018-12-19T16:33:58.969Z,23.28
2018-12-19T16:35:51.928Z,23.37
2018-12-19T16:36:51.948Z,23.28
2018-12-19T16:38:44.905Z,23.39
2018-12-19T16:39:44.924Z,23.16
2018-12-19T16:41:37.874Z,23.17
2018-12-19T16:42:37.899Z,23.18
2018-12-19T16:44:30.841Z,23.26
2018-12-19T16:45:30.868Z,23.26
2018-12-19T16:47:23.825Z,23.26
2018-12-19T16:48:23.842Z,23.25
2018-12-19T16:50:16.791Z,23.29
2018-12-19T16:51:16.817Z,23.17
2018-12-19T16:53:09.771Z,23.28
2018-12-19T16:54:09.831Z,23.21
2018-12-19T16:56:02.742Z,23.23
2018-12-19T16:57:02.772Z,23.20
2018-12-19T16:58:55.725Z,23.17
2018-12-19T16:59:55.741Z,23.32
2018-12-19T17:01:48.697Z,23.14
2018-12-19T17:02:48.717Z,23.18
2018-12-19T17:04:41.657Z,23.17
2018-12-19T17:05:41.692Z,23.18
2018-12-19T17:07:35.145Z,23.17
2018-12-19T17:08:35.170Z,23.21
2018-12-19T17:10:28.112Z,23.13
2018-12-19T17:11:28.141Z,23.14
2018-12-19T17:13:21.099Z,22.95
2018-12-19T17:14:21.115Z,23.01
2018-12-19T17:16:14.057Z,23.25
2018-12-19T17:17:14.090Z,23.28
2018-12-19T17:19:07.532Z,23.37
2018-12-19T17:20:07.552Z,23.40
2018-12-19T17:22:00.999Z,23.26
2018-12-19T17:23:01.017Z,23.10
2018-12-19T17:24:54.467Z,23.13
2018-12-19T17:25:54.497Z,23.23
2018-12-19T17:27:47.940Z,23.14
2018-12-19T17:28:47.961Z,23.28
2018-12-19T17:30:40.904Z,23.26
2018-12-19T17:31:40.935Z,23.36
2018-12-19T17:33:34.379Z,23.42
2018-12-19T17:34:34.450Z,23.40
2018-12-19T17:36:27.347Z,23.49
2018-12-19T17:37:27.376Z,23.40
2018-12-19T17:39:20.349Z,23.44
2018-12-19T17:40:20.358Z,23.40
2018-12-19T17:42:13.309Z,23.51
2018-12-19T17:43:13.329Z,23.51
2018-12-19T17:45:06.308Z,23.49
2018-12-19T17:46:06.302Z,23.44
2018-12-19T17:47:59.754Z,23.37
2018-12-19T17:48:59.781Z,23.39
2018-12-19T17:50:52.718Z,23.45
2018-12-19T17:51:52.748Z,23.39
2018-12-19T17:53:45.697Z,23.28
2018-12-19T17:54:45.717Z,23.49
2018-12-19T17:56:38.667Z,23.55
2018-12-19T17:57:38.698Z,23.51
2018-12-19T17:59:31.649Z,23.48
2018-12-19T18:00:31.668Z,23.40
2018-12-19T18:02:24.635Z,23.59
2018-12-19T18:03:24.656Z,23.52
2018-12-19T18:05:18.095Z,23.67
2018-12-19T18:06:18.121Z,23.79
2018-12-19T18:08:11.079Z,23.74
2018-12-19T18:09:11.101Z,23.74
2018-12-19T18:11:04.545Z,23.77
2018-12-19T18:12:04.580Z,23.89
2018-12-19T18:13:58.024Z,23.89
2018-12-19T18:14:58.034Z,23.84
2018-12-19T18:16:51.501Z,23.99
2018-12-19T18:17:51.530Z,23.91
2018-12-19T18:19:44.977Z,23.94
2018-12-19T18:20:45.085Z,23.96
2018-12-19T18:22:38.453Z,23.88
2018-12-19T18:23:38.474Z,23.95
2018-12-19T18:25:31.919Z,23.79
2018-12-19T18:26:31.948Z,23.76
2018-12-19T18:28:25.398Z,23.74
2018-12-19T18:29:25.419Z,23.67
2018-12-19T18:31:18.361Z,23.71
2018-12-19T18:32:18.386Z,23.64
2018-12-19T18:34:11.843Z,23.62